Fortuna, Missouri
Current Conditions -  °F | °C
As of 7:53 PM on Tuesday 25 Nov 2014 (Local Time) from KDMO Reporting Station
Clear Clear  
Wind Chill: 24°   Ceiling: Unl
Heat Index: 30°   Visibility: 10mi
Dew Point: 18°   Wind: 6mph
Humidity: 61%   Direction: 170°S
Pressure: 30.12"   Gusts: NA
Location:  38.57°N, 92.8°W
Report Text: KDMO 260153Z AUTO 17005KT 10SM CLR M01/M08 A3012 RMK AO2 SLP211 T10111078
Loading
Personal Weather Stations






























Interactive Weather Map New forecast layout! Learn more

10-Day Weather Forecast

Advertisements
Track Severe Weather on mobile